Time;durP1;ratioP1;P1;durP2;ratioP2;P2;SDS_P1;SDS_P2;PMS_P1;PMS_P2;Temp;Humidity;BMP_temperature;BMP_pressure;BME280_temperature;BME280_humidity;BME280_pressure;Samples;Min_cycle;Max_cycle;Signal;HPM_P1;HPM_P2
2022/04/03 00:01:26;;;;;;;2.00;1.80;;;;;;;1.91;69.23;97523.34;4944703;29;20039;-82
2022/04/03 00:03:52;;;;;;;2.25;2.05;;;;;;;1.93;68.93;97535.31;4948808;29;20095;-84
2022/04/03 00:06:19;;;;;;;3.38;2.65;;;;;;;1.54;69.27;97468.19;4946952;29;20130;-83
2022/04/03 00:08:45;;;;;;;3.63;2.33;;;;;;;1.80;69.59;97511.50;4935975;29;20599;-83
2022/04/03 00:11:11;;;;;;;3.35;2.17;;;;;;;1.97;68.57;97536.13;4945468;29;20131;-84
2022/04/03 00:13:37;;;;;;;2.95;2.25;;;;;;;1.71;69.18;97487.66;4950282;29;20045;-83
2022/04/03 00:16:05;;;;;;;3.95;2.33;;;;;;;1.94;68.97;97533.59;4955066;28;20063;-83
2022/04/03 00:18:32;;;;;;;3.15;2.58;;;;;;;1.65;69.50;97480.91;4941046;29;20058;-84
2022/04/03 00:20:59;;;;;;;2.88;2.10;;;;;;;1.74;68.91;97505.59;4946958;29;20039;-83
2022/04/03 00:23:26;;;;;;;2.55;2.15;;;;;;;1.63;69.15;97480.06;4935844;29;20116;-83
2022/04/03 00:25:53;;;;;;;2.58;2.20;;;;;;;1.22;69.39;97419.78;4938621;29;20364;-82
2022/04/03 00:28:20;;;;;;;2.85;2.40;;;;;;;1.41;69.67;97452.06;4947386;29;20061;-84
2022/04/03 00:30:46;;;;;;;2.10;1.90;;;;;;;1.48;68.39;97458.81;4933839;29;20039;-82
2022/04/03 00:33:13;;;;;;;2.67;1.95;;;;;;;1.32;69.18;97444.47;4946959;29;20050;-82
2022/04/03 00:35:39;;;;;;;2.00;1.80;;;;;;;1.68;69.38;97482.56;4939955;29;20042;-84
2022/04/03 00:38:07;;;;;;;2.55;1.80;;;;;;;1.85;69.48;97515.75;4956489;29;20107;-84
2022/04/03 00:40:33;;;;;;;2.53;2.25;;;;;;;1.78;69.98;97500.41;4957947;29;20035;-83
2022/04/03 00:42:59;;;;;;;3.03;2.03;;;;;;;1.47;68.98;97449.44;4966774;28;20070;-83
2022/04/03 00:45:26;;;;;;;2.08;1.88;;;;;;;1.73;70.03;97493.63;4967252;28;20043;-83
2022/04/03 00:47:53;;;;;;;2.30;1.80;;;;;;;1.76;69.48;97476.50;4932797;29;20050;-84
2022/04/03 00:50:20;;;;;;;1.52;1.42;;;;;;;1.80;69.17;97477.28;4946156;29;20043;-84
2022/04/03 00:52:47;;;;;;;3.08;1.95;;;;;;;1.93;69.28;97506.22;4930019;29;20419;-83
2022/04/03 00:55:14;;;;;;;3.47;2.17;;;;;;;1.93;69.72;97501.09;4944466;29;20528;-84
2022/04/03 00:57:43;;;;;;;2.30;1.65;;;;;;;1.57;69.30;97427.09;4932319;29;20407;-83
2022/04/03 01:00:12;;;;;;;2.10;1.85;;;;;;;1.92;69.55;97494.28;4948477;29;20039;-83
2022/04/03 01:02:41;;;;;;;2.20;1.98;;;;;;;1.78;69.39;97467.06;4946992;29;20535;-83
2022/04/03 01:05:08;;;;;;;2.40;1.90;;;;;;;1.58;69.50;97439.06;4933215;29;20071;-83
2022/04/03 01:07:34;;;;;;;2.03;1.83;;;;;;;1.91;69.21;97488.31;4947465;29;20447;-84
2022/04/03 01:10:01;;;;;;;2.60;2.00;;;;;;;1.82;69.61;97473.00;4933414;29;20059;-83
2022/04/03 01:12:27;;;;;;;2.30;2.08;;;;;;;1.85;69.07;97485.78;4945015;29;20039;-84
2022/04/03 01:14:53;;;;;;;2.47;1.98;;;;;;;1.41;69.25;97423.88;4931597;29;20518;-86
2022/04/03 01:17:19;;;;;;;2.70;2.20;;;;;;;1.76;69.59;97485.91;4928633;29;20039;-82
2022/04/03 01:19:46;;;;;;;2.00;1.80;;;;;;;1.43;69.55;97432.41;4943204;29;20043;-84
2022/04/03 01:22:12;;;;;;;2.28;2.08;;;;;;;1.80;69.45;97490.97;4945499;29;20039;-83
2022/04/03 01:24:43;;;;;;;2.80;1.90;;;;;;;1.71;69.26;97472.28;4955627;29;20042;-84
2022/04/03 01:27:10;;;;;;;2.20;2.00;;;;;;;1.49;69.85;97434.88;4974656;28;20024;-83
2022/04/03 01:29:36;;;;;;;2.40;2.00;;;;;;;1.73;69.31;97479.09;4959179;29;20067;-84
2022/04/03 01:32:02;;;;;;;1.55;1.45;;;;;;;1.35;69.47;97421.38;4957419;29;20228;-85
2022/04/03 01:34:30;;;;;;;2.85;2.03;;;;;;;1.61;69.54;97456.16;4934833;29;20046;-85
2022/04/03 01:36:56;;;;;;;2.80;2.00;;;;;;;1.30;69.43;97407.75;4947312;29;20048;-85
2022/04/03 01:39:22;;;;;;;2.78;2.13;;;;;;;1.53;69.77;97450.25;4948956;29;20095;-82
2022/04/03 01:41:48;;;;;;;3.03;1.90;;;;;;;1.49;69.36;97440.00;4948864;29;20498;-84
2022/04/03 01:44:15;;;;;;;3.10;2.10;;;;;;;1.75;69.73;97477.34;4920592;29;20047;-84
2022/04/03 01:46:41;;;;;;;2.83;2.08;;;;;;;1.34;69.74;97410.25;4950203;29;20092;-84
2022/04/03 01:49:08;;;;;;;2.70;1.98;;;;;;;1.55;69.49;97435.69;4951925;29;20104;-84
2022/04/03 01:51:34;;;;;;;2.08;1.80;;;;;;;1.54;69.47;97444.25;4928973;29;20081;-84
2022/04/03 01:54:01;;;;;;;2.83;2.13;;;;;;;1.35;69.76;97416.25;4960003;29;20131;-83
2022/04/03 01:56:28;;;;;;;2.53;1.92;;;;;;;1.58;69.17;97474.94;4940976;29;20083;-87
2022/04/03 01:58:54;;;;;;;3.20;2.20;;;;;;;0.99;69.40;97382.44;4937695;29;20148;-84
2022/04/03 02:01:20;;;;;;;3.55;2.10;;;;;;;1.57;69.89;97480.94;4949328;29;20447;-85
2022/04/03 02:03:46;;;;;;;2.03;1.80;;;;;;;1.07;69.59;97395.16;4936727;29;20430;-85
2022/04/03 02:06:13;;;;;;;3.17;2.22;;;;;;;1.41;69.87;97459.75;4948402;28;20043;-84
2022/04/03 02:08:40;;;;;;;3.75;2.65;;;;;;;1.16;69.57;97401.06;4961141;28;20035;-83
2022/04/03 02:11:06;;;;;;;3.10;2.42;;;;;;;1.14;69.60;97397.66;4948669;29;20044;-83
2022/04/03 02:13:32;;;;;;;3.55;2.60;;;;;;;1.01;68.64;97386.66;4930027;29;20051;-86
2022/04/03 02:15:58;;;;;;;4.05;2.60;;;;;;;1.23;69.96;97426.59;4950214;29;20050;-85
2022/04/03 02:18:24;;;;;;;2.97;2.30;;;;;;;1.49;69.24;97460.50;4930677;29;20051;-86
2022/04/03 02:20:50;;;;;;;3.63;2.72;;;;;;;1.41;69.49;97457.19;4938682;29;20023;-84
2022/04/03 02:23:16;;;;;;;3.33;2.95;;;;;;;1.13;69.66;97405.34;4972709;28;20047;-83
2022/04/03 02:25:42;;;;;;;3.42;2.78;;;;;;;1.15;70.19;97406.16;4943632;29;20889;-84
2022/04/03 02:28:10;;;;;;;4.03;2.90;;;;;;;1.35;69.70;97426.50;4932937;29;20043;-83
2022/04/03 02:30:36;;;;;;;3.60;2.80;;;;;;;1.37;70.31;97414.53;4935287;29;20460;-85
2022/04/03 02:33:02;;;;;;;3.92;2.90;;;;;;;1.30;69.47;97425.69;4926361;29;20183;-82
2022/04/03 02:35:28;;;;;;;3.20;2.75;;;;;;;0.98;69.91;97378.19;4961019;29;20074;-83
2022/04/03 02:37:54;;;;;;;3.78;2.90;;;;;;;1.40;69.45;97449.50;4965485;28;20082;-82
2022/04/03 02:40:21;;;;;;;3.65;2.80;;;;;;;1.14;69.96;97386.53;4936165;29;20114;-83
2022/04/03 02:42:47;;;;;;;3.72;3.15;;;;;;;1.24;69.14;97405.22;4947042;29;20039;-84
2022/04/03 02:45:13;;;;;;;4.25;3.00;;;;;;;1.45;69.49;97429.81;4917728;29;20047;-84
2022/04/03 02:47:39;;;;;;;3.78;3.13;;;;;;;1.44;69.63;97418.69;4948160;29;20521;-84
2022/04/03 02:50:07;;;;;;;5.43;3.20;;;;;;;1.20;69.65;97383.94;4948212;29;20503;-84
2022/04/03 02:52:33;;;;;;;4.10;3.33;;;;;;;1.43;69.41;97426.41;4955745;29;20062;-83
2022/04/03 02:54:59;;;;;;;3.97;3.25;;;;;;;1.20;69.40;97397.59;4933385;29;20041;-82
2022/04/03 02:57:25;;;;;;;3.97;3.50;;;;;;;1.24;69.52;97416.34;4932674;29;20559;-82
2022/04/03 02:59:51;;;;;;;4.93;3.47;;;;;;;1.55;69.75;97449.34;4944341;29;20059;-82
2022/04/03 03:02:17;;;;;;;4.32;3.35;;;;;;;1.31;69.71;97420.56;4945606;29;20542;-81
2022/04/03 03:04:43;;;;;;;3.20;2.90;;;;;;;1.07;69.27;97396.00;4934080;29;20054;-83
2022/04/03 03:07:09;;;;;;;3.15;2.72;;;;;;;1.35;69.17;97445.25;4950031;29;20047;-84
2022/04/03 03:09:36;;;;;;;3.28;2.97;;;;;;;1.45;69.50;97437.50;4933868;29;20089;-83
2022/04/03 03:12:03;;;;;;;4.03;3.25;;;;;;;1.23;69.44;97413.78;4928246;29;20053;-83
2022/04/03 03:14:29;;;;;;;3.53;3.10;;;;;;;1.11;68.66;97401.94;4946542;29;20138;-83
2022/04/03 03:16:55;;;;;;;3.83;3.00;;;;;;;1.39;68.62;97452.94;4932928;29;20175;-82
2022/04/03 03:19:22;;;;;;;4.68;3.50;;;;;;;1.53;68.75;97473.31;4944217;29;20039;-82
2022/04/03 03:21:48;;;;;;;3.92;3.33;;;;;;;1.14;69.36;97405.34;4930598;29;20054;-83
2022/04/03 03:24:15;;;;;;;4.45;3.50;;;;;;;1.48;69.14;97451.13;4937153;29;20044;-81
2022/04/03 03:26:41;;;;;;;4.55;3.60;;;;;;;1.43;69.41;97423.84;4951383;29;20043;-82
2022/04/03 03:29:08;;;;;;;6.35;3.95;;;;;;;1.52;68.32;97440.84;4932827;29;20047;-83
2022/04/03 03:31:34;;;;;;;3.67;3.28;;;;;;;1.63;68.92;97447.56;4932886;29;20439;-82
2022/04/03 03:34:00;;;;;;;4.80;3.63;;;;;;;1.32;68.68;97391.50;4945623;29;20534;-82
2022/04/03 03:36:27;;;;;;;4.10;3.67;;;;;;;1.38;68.66;97417.91;4944464;29;20043;-81
2022/04/03 03:38:54;;;;;;;4.40;3.53;;;;;;;1.73;68.96;97471.38;4933016;29;20036;-82
2022/04/03 03:41:20;;;;;;;5.32;3.70;;;;;;;1.67;68.37;97466.31;4939906;29;20035;-84
2022/04/03 03:43:47;;;;;;;4.05;3.60;;;;;;;1.48;68.86;97442.59;4954383;29;20074;-83
2022/04/03 03:46:14;;;;;;;4.45;3.42;;;;;;;1.27;69.02;97410.34;4966526;29;20110;-81
2022/04/03 03:48:40;;;;;;;5.07;3.45;;;;;;;1.41;68.67;97439.25;4959998;28;20043;-82
2022/04/03 03:51:07;;;;;;;4.25;3.30;;;;;;;1.23;68.60;97414.66;4945370;29;20138;-83
2022/04/03 03:53:33;;;;;;;3.65;3.13;;;;;;;1.67;68.34;97484.25;4953321;29;20442;-81
2022/04/03 03:56:00;;;;;;;4.28;3.13;;;;;;;1.67;68.65;97476.56;4939756;29;20043;-83
2022/04/03 03:58:26;;;;;;;3.17;2.58;;;;;;;1.34;68.41;97430.75;4933784;29;20044;-84
2022/04/03 04:00:52;;;;;;;4.10;2.97;;;;;;;1.37;67.98;97424.78;4946742;29;20090;-83
2022/04/03 04:03:18;;;;;;;3.97;2.85;;;;;;;1.76;68.54;97476.50;4945896;29;20507;-81
2022/04/03 04:05:45;;;;;;;2.53;2.30;;;;;;;1.63;68.43;97460.38;4941479;29;20059;-82
2022/04/03 04:08:11;;;;;;;3.72;2.70;;;;;;;1.53;68.42;97438.28;4933228;28;20138;-83
2022/04/03 04:10:37;;;;;;;3.72;2.80;;;;;;;1.65;67.58;97461.22;4949201;29;20046;-82
2022/04/03 04:13:03;;;;;;;3.45;2.63;;;;;;;1.75;68.00;97459.41;4935466;29;20043;-82
2022/04/03 04:15:33;;;;;;;3.30;2.30;;;;;;;1.52;68.03;97440.84;4942474;29;20078;-82
2022/04/03 04:18:00;;;;;;;2.55;2.28;;;;;;;2.04;68.09;97513.81;4969255;29;20067;-82
2022/04/03 04:20:27;;;;;;;2.85;2.28;;;;;;;1.99;68.07;97480.50;4968736;28;20032;-82
2022/04/03 04:23:49;;;;;;;3.65;2.40;;;;;;;1.55;67.79;97402.38;4955505;28;20031;-81
2022/04/03 04:26:42;;;;;;;3.08;2.05;;;;;;;1.88;68.06;97452.41;4952285;29;20067;-82
2022/04/03 04:29:09;;;;;;;4.13;2.28;;;;;;;2.07;67.54;97483.84;4951276;29;20046;-80
2022/04/03 04:31:35;;;;;;;6.50;2.60;;;;;;;2.39;67.96;97513.41;4934631;29;20118;-83
2022/04/03 04:34:04;;;;;;;4.20;2.33;;;;;;;2.02;67.12;97446.28;4931158;29;20046;-81
2022/04/03 04:36:31;;;;;;;2.58;2.10;;;;;;;2.29;66.77;97457.06;4945125;29;20119;-82
2022/04/03 04:38:57;;;;;;;3.45;2.00;;;;;;;2.68;66.90;97525.00;4946421;29;20039;-83
2022/04/03 04:41:24;;;;;;;2.70;2.17;;;;;;;2.19;66.74;97440.94;4932904;29;20051;-82
2022/04/03 04:43:50;;;;;;;3.15;2.00;;;;;;;2.23;66.26;97451.13;4932584;29;20110;-82
2022/04/03 04:46:25;;;;;;;4.00;2.40;;;;;;;2.76;66.31;97535.19;4926222;29;20106;-84
2022/04/03 04:49:02;;;;;;;2.33;1.90;;;;;;;2.61;65.27;97518.25;4924402;29;20067;-85
2022/04/03 04:51:38;;;;;;;2.97;2.15;;;;;;;2.25;65.74;97436.56;4928484;29;20047;-81
2022/04/03 04:54:15;;;;;;;2.70;2.08;;;;;;;2.48;65.75;97478.22;4937094;29;20063;-86
2022/04/03 04:56:41;;;;;;;2.58;1.88;;;;;;;2.54;65.43;97473.84;4968901;28;20137;-87
2022/04/03 04:59:07;;;;;;;2.80;1.98;;;;;;;2.68;64.79;97490.75;4968451;28;20038;-85
2022/04/03 05:01:33;;;;;;;2.53;2.00;;;;;;;2.56;64.36;97455.84;4971083;28;20055;-83
2022/04/03 05:04:00;;;;;;;1.92;1.67;;;;;;;2.82;63.89;97509.41;4936728;29;20082;-84
2022/04/03 05:06:27;;;;;;;2.47;2.20;;;;;;;2.72;64.35;97464.16;4933906;29;20043;-83
2022/04/03 05:08:54;;;;;;;2.65;1.98;;;;;;;2.83;63.75;97479.41;4942293;29;20498;-87
2022/04/03 05:11:23;;;;;;;3.28;2.13;;;;;;;2.91;63.78;97487.00;4943986;29;20051;-86
2022/04/03 05:13:49;;;;;;;3.47;2.30;;;;;;;3.37;63.58;97562.56;4933839;29;20049;-85
2022/04/03 05:16:16;;;;;;;3.08;2.60;;;;;;;3.13;63.66;97519.22;4933796;29;20422;-82
2022/04/03 05:18:42;;;;;;;3.85;2.25;;;;;;;3.51;63.46;97575.22;4953298;29;20094;-83
2022/04/03 05:21:10;;;;;;;2.85;2.25;;;;;;;3.63;63.59;97564.72;4922787;29;20367;-82
2022/04/03 05:23:41;;;;;;;2.58;2.25;;;;;;;3.55;62.31;97554.56;4944194;29;20075;-82
2022/04/03 05:26:07;;;;;;;3.05;2.03;;;;;;;3.64;62.44;97563.84;4937125;29;20050;-83
2022/04/03 05:28:35;;;;;;;2.50;2.08;;;;;;;3.21;61.25;97480.53;4946187;29;20462;-83
2022/04/03 05:31:03;;;;;;;2.50;2.05;;;;;;;3.89;62.74;97574.56;4930904;29;20043;-83
2022/04/03 05:33:29;;;;;;;3.80;2.05;;;;;;;4.03;62.20;97568.34;4947331;29;20047;-82
2022/04/03 05:35:55;;;;;;;3.03;2.13;;;;;;;4.00;61.94;97563.25;4935230;29;20051;-83
2022/04/03 05:38:22;;;;;;;4.05;2.55;;;;;;;4.12;62.67;97577.63;4948920;29;20047;-84
2022/04/03 05:40:49;;;;;;;2.25;2.00;;;;;;;4.09;61.86;97573.34;4949209;29;20043;-85
2022/04/03 05:43:15;;;;;;;4.78;2.08;;;;;;;4.16;62.11;97574.13;4948652;29;20055;-83
2022/04/03 05:45:42;;;;;;;3.28;2.20;;;;;;;4.11;61.85;97553.59;4948438;29;20392;-82
2022/04/03 05:48:09;;;;;;;3.33;2.10;;;;;;;4.10;62.19;97546.72;4931781;29;20047;-82
2022/04/03 05:50:40;;;;;;;3.10;2.17;;;;;;;4.38;62.07;97559.09;4949764;29;20043;-83
2022/04/03 05:53:06;;;;;;;2.72;2.30;;;;;;;4.40;61.88;97520.44;4934781;29;20044;-83
2022/04/03 05:55:33;;;;;;;2.30;1.95;;;;;;;4.99;60.99;97576.72;4929274;29;20148;-82
2022/04/03 05:57:58;;;;;;;5.05;2.65;;;;;;;5.40;61.19;97582.69;4929474;29;20129;-81
2022/04/03 06:00:25;;;;;;;4.82;2.55;;;;;;;5.38;61.05;97557.81;4948336;29;20094;-82
2022/04/03 06:02:53;;;;;;;3.00;2.25;;;;;;;5.34;60.77;97536.41;4916635;29;20047;-83
2022/04/03 06:05:24;;;;;;;3.15;1.80;;;;;;;5.58;59.46;97596.88;4937995;29;20035;-81
2022/04/03 06:07:50;;;;;;;3.13;2.30;;;;;;;5.24;60.06;97586.50;4964851;28;20023;-82
2022/04/03 06:10:25;;;;;;;3.13;2.50;;;;;;;5.27;60.22;97609.63;4947713;28;20055;-82
2022/04/03 06:12:59;;;;;;;2.72;2.13;;;;;;;5.21;59.56;97612.34;4922752;29;20038;-85
2022/04/03 06:15:34;;;;;;;2.92;2.33;;;;;;;4.82;59.60;97562.47;4951271;29;20122;-83
2022/04/03 06:18:02;;;;;;;3.08;2.22;;;;;;;5.11;58.58;97580.75;4955784;29;20054;-82
2022/04/03 06:20:28;;;;;;;3.28;2.42;;;;;;;5.25;59.34;97583.91;4952408;29;20510;-81
2022/04/03 06:22:54;;;;;;;3.35;2.55;;;;;;;5.67;59.36;97606.13;4932190;29;20039;-81
2022/04/03 06:25:21;;;;;;;2.97;2.13;;;;;;;5.79;58.50;97589.50;4935333;29;20047;-82
2022/04/03 06:27:52;;;;;;;2.67;2.17;;;;;;;5.98;58.21;97620.00;4948394;29;20101;-82
2022/04/03 06:30:22;;;;;;;2.85;2.40;;;;;;;5.90;58.33;97621.94;4934274;29;20050;-81
2022/04/03 06:32:48;;;;;;;3.10;2.50;;;;;;;5.99;58.08;97632.91;4930328;29;20062;-83
2022/04/03 06:35:14;;;;;;;7.45;2.50;;;;;;;5.68;57.21;97594.91;4948804;29;20047;-83
2022/04/03 06:37:49;;;;;;;2.25;2.05;;;;;;;5.78;57.01;97623.09;4920448;29;20065;-81
2022/04/03 06:40:18;;;;;;;2.22;1.88;;;;;;;5.77;56.63;97618.81;4949657;29;20044;-82
2022/04/03 06:42:45;;;;;;;4.43;2.50;;;;;;;5.88;55.83;97627.13;4916732;29;20047;-83
2022/04/03 06:45:17;;;;;;;3.22;2.00;;;;;;;5.96;55.90;97669.13;4920845;29;20043;-84
2022/04/03 06:47:44;;;;;;;2.55;2.13;;;;;;;5.82;55.89;97656.53;4950296;29;20039;-82
2022/04/03 06:50:10;;;;;;;2.55;2.10;;;;;;;5.40;55.93;97602.47;4937703;29;20043;-83
2022/04/03 06:52:37;;;;;;;3.95;2.22;;;;;;;5.85;55.80;97659.03;4937123;29;20107;-82
2022/04/03 06:55:32;;;;;;;3.17;2.25;;;;;;;6.06;54.56;97666.34;4936893;29;20051;-85
2022/04/03 07:02:11;;;;;;;2.70;2.40;;;;;;;6.11;54.36;97582.72;4877652;29;20068;-82
2022/04/03 07:04:37;;;;;;;2.63;2.13;;;;;;;6.19;53.85;97587.66;4958350;29;20443;-81
2022/04/03 07:07:25;;;;;;;3.70;2.55;;;;;;;6.21;53.94;97601.38;4965063;29;20050;-83
2022/04/03 07:09:53;;;;;;;3.42;2.50;;;;;;;6.05;53.79;97600.09;4916091;29;20051;-80
2022/04/03 07:12:22;;;;;;;3.65;2.60;;;;;;;6.51;53.91;97697.03;4944281;29;20047;-81
2022/04/03 07:14:49;;;;;;;2.55;2.30;;;;;;;6.16;52.61;97694.50;4948967;29;20043;-82
2022/04/03 07:17:19;;;;;;;3.33;2.30;;;;;;;5.83;53.05;97670.31;4933039;29;20044;-80
2022/04/03 07:20:10;;;;;;;2.63;2.30;;;;;;;6.08;52.17;97718.78;4943638;29;20023;-84
2022/04/03 07:23:16;;;;;;;2.88;2.58;;;;;;;6.15;52.37;97710.00;4955295;29;20465;-82
2022/04/03 07:26:23;;;;;;;3.35;2.50;;;;;;;5.62;52.40;97643.25;4945807;29;20043;-79
2022/04/03 07:28:52;;;;;;;2.53;2.33;;;;;;;5.18;52.14;97591.81;4942128;29;20063;-83
2022/04/03 07:31:52;;;;;;;3.97;2.40;;;;;;;5.42;51.64;97678.94;4941696;29;20460;-82
2022/04/03 07:34:19;;;;;;;2.78;2.42;;;;;;;5.45;52.55;97734.78;4942167;29;20043;-82
2022/04/03 07:36:46;;;;;;;3.90;2.60;;;;;;;5.17;52.68;97737.09;4945657;29;20043;-84
2022/04/03 07:39:15;;;;;;;3.95;2.50;;;;;;;5.11;51.88;97713.13;4963371;29;20103;-81
2022/04/03 07:41:44;;;;;;;4.90;4.15;;;;;;;5.23;52.67;97729.19;4953440;29;20099;-81
2022/04/03 07:44:11;;;;;;;4.00;2.80;;;;;;;5.28;51.99;97732.53;4961056;29;20050;-81
2022/04/03 07:46:39;;;;;;;4.25;2.63;;;;;;;5.25;51.61;97764.41;4942648;29;20649;-82
2022/04/03 07:49:06;;;;;;;3.65;2.72;;;;;;;5.19;52.01;97751.63;4931169;29;20039;-82
2022/04/03 07:51:33;;;;;;;3.72;2.78;;;;;;;4.69;51.63;97697.59;4947756;29;20048;-83
2022/04/03 07:53:59;;;;;;;3.88;2.75;;;;;;;4.71;51.88;97715.59;4928255;29;20043;-81
2022/04/03 07:56:27;;;;;;;3.33;2.55;;;;;;;4.73;51.90;97755.94;4964137;29;20111;-80
2022/04/03 07:58:58;;;;;;;3.92;2.92;;;;;;;4.52;51.91;97737.38;4945545;29;20037;-80
2022/04/03 08:01:24;;;;;;;4.72;2.85;;;;;;;4.77;51.65;97788.47;4948020;29;20142;-80
2022/04/03 08:03:50;;;;;;;4.43;2.78;;;;;;;4.68;51.76;97775.78;4929693;29;20047;-80
2022/04/03 08:06:27;;;;;;;2.95;2.60;;;;;;;4.31;51.29;97753.19;4934356;29;20031;-80
2022/04/03 08:08:53;;;;;;;7.28;3.13;;;;;;;4.27;51.67;97773.00;4937018;28;20839;-81
2022/04/03 08:11:23;;;;;;;3.60;2.90;;;;;;;4.05;51.75;97750.16;4931366;29;20511;-81
2022/04/03 08:13:49;;;;;;;4.60;3.00;;;;;;;4.17;51.58;97800.63;4932938;29;20047;-83
2022/04/03 08:16:30;;;;;;;3.90;2.75;;;;;;;3.84;51.89;97797.66;4952583;29;20496;-83
2022/04/03 08:18:57;;;;;;;3.42;2.50;;;;;;;3.84;51.83;97814.81;4914763;29;20487;-81
2022/04/03 08:21:25;;;;;;;3.40;2.60;;;;;;;3.89;51.91;97825.91;4933520;29;20074;-81
2022/04/03 08:23:51;;;;;;;3.30;2.70;;;;;;;3.97;52.33;97833.50;4926047;29;20101;-81
2022/04/03 08:26:25;;;;;;;3.47;2.60;;;;;;;4.03;52.09;97825.72;4953293;29;20460;-81
2022/04/03 08:28:56;;;;;;;3.45;2.58;;;;;;;4.04;52.18;97811.97;4943468;29;20048;-82
2022/04/03 08:31:23;;;;;;;4.38;3.10;;;;;;;4.01;51.27;97797.41;4952091;29;20035;-82
2022/04/03 08:33:50;;;;;;;4.78;3.20;;;;;;;4.15;51.24;97810.09;4947516;29;20043;-82
2022/04/03 08:36:17;;;;;;;4.60;3.10;;;;;;;4.29;52.27;97830.47;4918870;29;20039;-82
2022/04/03 08:38:43;;;;;;;4.35;2.97;;;;;;;4.07;51.71;97796.50;4936227;29;20130;-81
2022/04/03 08:41:10;;;;;;;3.95;3.10;;;;;;;4.11;51.78;97792.16;4951819;29;20043;-82
2022/04/03 08:43:40;;;;;;;3.78;2.78;;;;;;;4.01;51.50;97788.84;4921684;29;20106;-82
2022/04/03 08:46:10;;;;;;;5.53;3.08;;;;;;;4.48;51.90;97845.66;4932791;29;20050;-83
2022/04/03 08:48:42;;;;;;;6.07;3.22;;;;;;;4.80;51.38;97834.81;4933674;29;20110;-83
2022/04/03 08:51:18;;;;;;;4.30;3.30;;;;;;;4.60;51.64;97782.78;4933692;29;20133;-80
2022/04/03 08:53:46;;;;;;;4.65;3.30;;;;;;;4.77;50.56;97824.56;4950053;29;20155;-82
2022/04/03 08:56:22;;;;;;;4.93;3.30;;;;;;;4.71;51.30;97821.25;4936267;29;20506;-82
2022/04/03 08:58:48;;;;;;;4.75;3.65;;;;;;;4.82;50.20;97843.38;4944888;29;20050;-82
2022/04/03 09:01:17;;;;;;;4.47;3.30;;;;;;;4.98;51.14;97850.84;4917768;29;20027;-83
2022/04/03 09:03:47;;;;;;;6.28;3.80;;;;;;;4.57;50.21;97795.69;4934398;29;20046;-81
2022/04/03 09:06:22;;;;;;;5.82;3.50;;;;;;;4.30;49.89;97769.56;4945014;29;20043;-82
2022/04/03 09:08:49;;;;;;;4.50;3.28;;;;;;;4.50;50.30;97806.13;4947105;28;20059;-84
2022/04/03 09:11:18;;;;;;;5.13;3.50;;;;;;;4.88;50.22;97831.28;4946384;29;20163;-82
2022/04/03 09:13:48;;;;;;;4.43;2.83;;;;;;;4.85;49.83;97847.66;4926881;29;20054;-82
2022/04/03 09:16:14;;;;;;;4.95;3.25;;;;;;;4.74;49.16;97818.63;4934144;29;20518;-82
2022/04/03 09:18:54;;;;;;;3.63;2.97;;;;;;;5.20;49.77;97877.09;4944729;28;20110;-81
2022/04/03 09:21:32;;;;;;;6.32;3.30;;;;;;;4.93;49.56;97824.31;4939402;29;20273;-82
2022/04/03 09:24:10;;;;;;;5.55;3.30;;;;;;;5.58;49.53;97900.50;4933757;29;20051;-84
2022/04/03 09:26:43;;;;;;;6.03;3.53;;;;;;;5.56;48.99;97856.66;4947813;29;20043;-83
2022/04/03 09:29:12;;;;;;;5.18;3.85;;;;;;;6.00;48.52;97877.31;4929421;29;20046;-84
2022/04/03 09:31:46;;;;;;;5.03;3.40;;;;;;;6.11;48.06;97858.16;4933431;29;20047;-81
2022/04/03 09:34:18;;;;;;;4.80;3.60;;;;;;;6.42;47.84;97854.91;4932681;29;20047;-82
2022/04/03 09:37:06;;;;;;;;;;;;;;;6.95;48.04;97895.03;4953604;29;20073;-81
2022/04/03 09:39:32;;;;;;;5.88;3.80;;;;;;;7.32;47.85;97899.25;4961923;28;19934;-82
2022/04/03 09:42:12;;;;;;;5.38;3.90;;;;;;;7.59;47.23;97895.06;4932406;29;20062;-78
2022/04/03 09:44:49;;;;;;;5.45;3.72;;;;;;;7.88;47.00;97870.13;4949359;29;20070;-82
2022/04/03 09:47:30;;;;;;;4.85;3.50;;;;;;;8.35;45.77;97879.97;4919917;29;20053;-84
2022/04/03 09:50:00;;;;;;;5.88;4.10;;;;;;;8.90;45.76;97915.47;4934769;29;20115;-84
2022/04/03 09:52:54;;;;;;;7.25;3.90;;;;;;;9.29;45.09;97904.69;4954676;29;20073;-82
2022/04/03 09:55:28;;;;;;;5.35;3.70;;;;;;;9.06;44.89;97801.66;4928280;29;20426;-80
2022/04/03 09:58:05;;;;;;;6.53;4.47;;;;;;;10.38;43.48;97896.47;4967576;29;20062;-80
2022/04/03 10:00:33;;;;;;;5.18;4.07;;;;;;;11.24;41.93;97908.69;4959282;29;20415;-81
2022/04/03 10:03:03;;;;;;;6.60;4.03;;;;;;;11.79;42.33;97904.66;4938975;29;20708;-80
2022/04/03 10:05:38;;;;;;;4.28;3.50;;;;;;;11.82;40.45;97917.53;4943544;29;20106;-80
2022/04/03 10:08:07;;;;;;;5.65;3.90;;;;;;;11.17;40.38;97868.22;4951713;28;20137;-84
2022/04/03 10:10:35;;;;;;;6.03;3.78;;;;;;;10.99;40.03;97891.50;4951089;28;20122;-81
2022/04/03 10:13:05;;;;;;;5.22;4.00;;;;;;;10.87;40.22;97859.00;4936872;29;20157;-81
2022/04/03 10:15:34;;;;;;;5.53;3.78;;;;;;;10.84;39.64;97841.78;4950075;29;20043;-83
2022/04/03 10:18:05;;;;;;;5.65;4.35;;;;;;;10.96;39.57;97876.84;4948674;29;20147;-83
2022/04/03 10:20:36;;;;;;;4.30;3.67;;;;;;;10.83;39.20;97867.84;4951763;29;20043;-81
2022/04/03 10:23:08;;;;;;;;;;;;;;;11.21;38.43;97909.69;4945375;29;20043;-81
2022/04/03 10:25:41;;;;;;;;;;;;;;;11.10;38.24;97915.34;4958275;29;19925;-82
2022/04/03 10:28:07;;;;;;;;;;;;;;;10.91;39.29;97906.59;4961765;29;20375;-83
2022/04/03 10:30:47;;;;;;;7.00;3.67;;;;;;;10.69;39.33;97884.88;4946279;29;19928;-82
2022/04/03 10:33:21;;;;;;;4.32;3.22;;;;;;;11.38;38.96;97887.28;4951935;29;20107;-83
2022/04/03 10:36:03;;;;;;;3.97;3.20;;;;;;;11.51;38.21;97872.81;4951121;29;20590;-84
2022/04/03 10:39:10;;;;;;;3.88;3.47;;;;;;;11.51;37.88;97898.03;4933787;29;20045;-83
2022/04/03 10:41:43;;;;;;;5.22;3.30;;;;;;;11.04;37.60;97814.06;4951093;29;20098;-82
2022/04/03 10:44:25;;;;;;;4.18;3.15;;;;;;;11.10;37.18;97811.22;4925950;29;20047;-83
2022/04/03 10:47:03;;;;;;;4.82;3.60;;;;;;;11.80;36.62;97942.84;4939232;29;20060;-83
2022/04/03 10:49:49;;;;;;;4.55;3.50;;;;;;;11.44;36.92;97882.66;4962429;29;20034;-82
2022/04/03 10:52:47;;;;;;;5.13;3.53;;;;;;;11.78;36.48;97947.25;4947316;29;20039;-82
2022/04/03 10:55:21;;;;;;;5.00;3.45;;;;;;;11.59;36.68;97943.69;4933541;29;20053;-83
2022/04/03 10:58:04;;;;;;;6.20;3.25;;;;;;;11.51;36.26;97948.34;4924859;29;20773;-83
2022/04/03 11:00:34;;;;;;;5.40;3.75;;;;;;;11.42;36.25;97949.59;4902054;29;20043;-82
2022/04/03 11:03:24;;;;;;;7.15;4.00;;;;;;;11.09;36.12;97963.09;4951732;29;20075;-81
2022/04/03 11:05:54;;;;;;;4.75;3.28;;;;;;;10.79;36.67;97963.41;4941522;28;20066;-82
2022/04/03 11:09:15;;;;;;;5.97;4.20;;;;;;;10.10;36.75;97896.63;4949722;28;20063;-85
2022/04/03 11:11:50;;;;;;;3.42;3.13;;;;;;;10.43;36.86;97963.91;4907061;29;20058;-83
2022/04/03 11:14:34;;;;;;;;;;;;;;;10.39;37.50;97977.91;4949365;29;20530;-86
2022/04/03 11:17:01;;;;;;;3.13;2.60;;;;;;;10.36;37.13;97973.66;4902722;29;19944;-82
2022/04/03 11:19:45;;;;;;;3.40;2.53;;;;;;;10.45;36.98;97969.91;4943051;28;20055;-82
2022/04/03 11:22:19;;;;;;;2.90;2.60;;;;;;;10.45;36.69;97975.09;4934029;29;20075;-82
2022/04/03 11:24:45;;;;;;;3.53;2.40;;;;;;;10.43;36.51;97960.44;4919089;29;20063;-84
2022/04/03 11:27:12;;;;;;;3.58;2.70;;;;;;;10.35;36.31;97947.69;4955788;29;20051;-81
2022/04/03 11:29:39;;;;;;;4.93;3.10;;;;;;;10.37;36.53;97945.91;4959021;29;20050;-84
2022/04/03 11:32:08;;;;;;;3.70;2.60;;;;;;;10.24;36.19;97929.91;4954967;29;20058;-85
2022/04/03 11:34:35;;;;;;;3.30;2.72;;;;;;;10.46;36.60;98002.81;4953378;29;20043;-83
2022/04/03 11:37:04;;;;;;;3.90;3.15;;;;;;;9.98;36.44;97969.84;4967204;29;20043;-81
2022/04/03 11:39:36;;;;;;;5.30;3.35;;;;;;;10.28;36.77;97987.81;4969079;28;20035;-82
2022/04/03 11:42:08;;;;;;;4.30;3.08;;;;;;;10.61;35.79;98010.94;4964962;29;20090;-83
2022/04/03 11:44:36;;;;;;;5.10;3.45;;;;;;;10.52;36.37;98005.16;4940015;29;20102;-84
2022/04/03 11:47:05;;;;;;;5.20;3.13;;;;;;;10.61;35.81;98008.31;4936305;29;20486;-83
2022/04/03 11:49:33;;;;;;;6.13;3.55;;;;;;;10.38;36.12;97968.41;4917418;29;20043;-84
2022/04/03 11:52:08;;;;;;;5.25;3.35;;;;;;;10.41;35.78;98002.13;4946559;29;20495;-81
2022/04/03 11:54:36;;;;;;;4.22;2.92;;;;;;;10.29;35.65;98008.59;4951973;29;20051;-81
2022/04/03 11:57:07;;;;;;;4.88;3.03;;;;;;;10.17;35.74;98017.66;4951446;29;20138;-81
2022/04/03 11:59:38;;;;;;;4.23;3.13;;;;;;;9.80;36.28;97957.44;4939823;29;20078;-81